sensor_id;sensor_type;location;lat;lon;timestamp;temperature;humidity
7194;DHT22;3638;48.820;9.244;2023-02-28T00:00:37;-1.20;99.90
7194;DHT22;3638;48.820;9.244;2023-02-28T00:03:05;-1.20;99.90
7194;DHT22;3638;48.820;9.244;2023-02-28T00:05:32;-1.20;99.90
7194;DHT22;3638;48.820;9.244;2023-02-28T00:07:59;-1.20;99.90
7194;DHT22;3638;48.820;9.244;2023-02-28T00:10:27;-1.20;99.90
7194;DHT22;3638;48.820;9.244;2023-02-28T00:13:00;-1.20;99.90
7194;DHT22;3638;48.820;9.244;2023-02-28T00:15:29;-1.10;99.90
7194;DHT22;3638;48.820;9.244;2023-02-28T00:17:56;-1.10;99.90
7194;DHT22;3638;48.820;9.244;2023-02-28T00:20:23;-1.20;99.90
7194;DHT22;3638;48.820;9.244;2023-02-28T00:22:52;-1.30;99.90
7194;DHT22;3638;48.820;9.244;2023-02-28T00:25:22;-1.30;99.90
7194;DHT22;3638;48.820;9.244;2023-02-28T00:27:50;-1.30;99.90
7194;DHT22;3638;48.820;9.244;2023-02-28T00:30:19;-1.30;99.90
7194;DHT22;3638;48.820;9.244;2023-02-28T00:32:47;-1.30;99.90
7194;DHT22;3638;48.820;9.244;2023-02-28T00:35:15;-1.40;99.90
7194;DHT22;3638;48.820;9.244;2023-02-28T00:37:42;-1.30;99.90
7194;DHT22;3638;48.820;9.244;2023-02-28T00:40:10;-1.30;99.90
7194;DHT22;3638;48.820;9.244;2023-02-28T00:42:37;-2.00;99.90
7194;DHT22;3638;48.820;9.244;2023-02-28T00:45:05;-1.40;99.90
7194;DHT22;3638;48.820;9.244;2023-02-28T00:47:34;-1.40;99.90
7194;DHT22;3638;48.820;9.244;2023-02-28T00:50:02;-1.30;99.90
7194;DHT22;3638;48.820;9.244;2023-02-28T00:52:30;-1.20;99.90
7194;DHT22;3638;48.820;9.244;2023-02-28T00:54:57;-1.40;99.90
7194;DHT22;3638;48.820;9.244;2023-02-28T00:57:23;-1.40;99.90
7194;DHT22;3638;48.820;9.244;2023-02-28T00:59:50;-1.40;99.90
7194;DHT22;3638;48.820;9.244;2023-02-28T01:02:19;-1.50;99.90
7194;DHT22;3638;48.820;9.244;2023-02-28T01:04:48;-1.50;99.90
7194;DHT22;3638;48.820;9.244;2023-02-28T01:07:15;-1.40;99.90
7194;DHT22;3638;48.820;9.244;2023-02-28T01:09:42;-1.40;99.90
7194;DHT22;3638;48.820;9.244;2023-02-28T01:12:09;0.40;99.90
7194;DHT22;3638;48.820;9.244;2023-02-28T01:14:36;-1.40;99.90
7194;DHT22;3638;48.820;9.244;2023-02-28T01:17:02;-1.40;99.90
7194;DHT22;3638;48.820;9.244;2023-02-28T01:19:29;-1.40;99.90
7194;DHT22;3638;48.820;9.244;2023-02-28T01:22:00;-1.40;99.90
7194;DHT22;3638;48.820;9.244;2023-02-28T01:24:28;-1.40;99.90
7194;DHT22;3638;48.820;9.244;2023-02-28T01:26:55;-1.40;99.90
7194;DHT22;3638;48.820;9.244;2023-02-28T01:29:21;-1.40;99.90
7194;DHT22;3638;48.820;9.244;2023-02-28T01:31:48;-1.40;99.90
7194;DHT22;3638;48.820;9.244;2023-02-28T01:34:17;-1.40;99.90
7194;DHT22;3638;48.820;9.244;2023-02-28T01:36:45;-1.30;99.90
7194;DHT22;3638;48.820;9.244;2023-02-28T01:39:13;-1.30;99.90
7194;DHT22;3638;48.820;9.244;2023-02-28T01:41:40;-1.40;99.90
7194;DHT22;3638;48.820;9.244;2023-02-28T01:47:41;-1.40;99.90
7194;DHT22;3638;48.820;9.244;2023-02-28T01:50:12;-1.40;99.90
7194;DHT22;3638;48.820;9.244;2023-02-28T01:52:42;-1.40;99.90
7194;DHT22;3638;48.820;9.244;2023-02-28T01:55:11;-1.40;99.90
7194;DHT22;3638;48.820;9.244;2023-02-28T01:57:44;-1.50;99.90
7194;DHT22;3638;48.820;9.244;2023-02-28T02:00:14;-1.50;99.90
7194;DHT22;3638;48.820;9.244;2023-02-28T02:02:46;-1.50;99.90
7194;DHT22;3638;48.820;9.244;2023-02-28T02:05:15;-1.50;99.90
7194;DHT22;3638;48.820;9.244;2023-02-28T02:07:45;-1.50;99.90
7194;DHT22;3638;48.820;9.244;2023-02-28T02:10:15;-1.50;99.90
7194;DHT22;3638;48.820;9.244;2023-02-28T02:13:13;-1.50;99.90
7194;DHT22;3638;48.820;9.244;2023-02-28T02:15:52;-1.50;99.90
7194;DHT22;3638;48.820;9.244;2023-02-28T02:18:30;-1.60;99.90
7194;DHT22;3638;48.820;9.244;2023-02-28T02:24:47;-1.40;99.90
7194;DHT22;3638;48.820;9.244;2023-02-28T02:27:34;-1.40;99.90
7194;DHT22;3638;48.820;9.244;2023-02-28T02:36:47;-1.40;99.90
7194;DHT22;3638;48.820;9.244;2023-02-28T02:39:21;-1.40;99.90
7194;DHT22;3638;48.820;9.244;2023-02-28T02:41:56;-1.20;99.90
7194;DHT22;3638;48.820;9.244;2023-02-28T02:44:28;-1.60;99.90
7194;DHT22;3638;48.820;9.244;2023-02-28T02:47:01;-1.20;99.90
7194;DHT22;3638;48.820;9.244;2023-02-28T02:49:32;-1.20;99.90
7194;DHT22;3638;48.820;9.244;2023-02-28T02:52:03;-1.20;99.90
7194;DHT22;3638;48.820;9.244;2023-02-28T02:54:33;-1.10;99.90
7194;DHT22;3638;48.820;9.244;2023-02-28T02:57:08;-1.10;99.90
7194;DHT22;3638;48.820;9.244;2023-02-28T02:59:39;-1.10;99.90
7194;DHT22;3638;48.820;9.244;2023-02-28T03:02:09;-1.10;99.90
7194;DHT22;3638;48.820;9.244;2023-02-28T03:04:43;-1.20;99.90
7194;DHT22;3638;48.820;9.244;2023-02-28T03:07:12;-1.20;99.90
7194;DHT22;3638;48.820;9.244;2023-02-28T03:09:39;-1.10;99.90
7194;DHT22;3638;48.820;9.244;2023-02-28T03:12:09;-1.20;99.90
7194;DHT22;3638;48.820;9.244;2023-02-28T03:14:49;-1.10;99.90
7194;DHT22;3638;48.820;9.244;2023-02-28T03:17:46;-1.10;99.90
7194;DHT22;3638;48.820;9.244;2023-02-28T03:20:27;-1.10;99.90
7194;DHT22;3638;48.820;9.244;2023-02-28T03:23:07;-1.00;99.90
7194;DHT22;3638;48.820;9.244;2023-02-28T03:25:51;-0.90;99.90
7194;DHT22;3638;48.820;9.244;2023-02-28T03:28:27;-1.10;99.90
7194;DHT22;3638;48.820;9.244;2023-02-28T03:31:01;-1.00;99.90
7194;DHT22;3638;48.820;9.244;2023-02-28T03:33:32;-1.00;99.90
7194;DHT22;3638;48.820;9.244;2023-02-28T03:36:06;-1.00;99.90
7194;DHT22;3638;48.820;9.244;2023-02-28T03:38:41;-1.00;99.90
7194;DHT22;3638;48.820;9.244;2023-02-28T03:41:14;-1.10;99.90
7194;DHT22;3638;48.820;9.244;2023-02-28T03:43:52;-1.10;99.90
7194;DHT22;3638;48.820;9.244;2023-02-28T03:46:24;-1.10;99.90
7194;DHT22;3638;48.820;9.244;2023-02-28T03:48:57;-1.10;99.90
7194;DHT22;3638;48.820;9.244;2023-02-28T03:51:31;-1.10;99.90
7194;DHT22;3638;48.820;9.244;2023-02-28T03:54:02;-1.10;99.90
7194;DHT22;3638;48.820;9.244;2023-02-28T03:56:36;-1.10;99.90
7194;DHT22;3638;48.820;9.244;2023-02-28T03:59:07;-1.00;99.90
7194;DHT22;3638;48.820;9.244;2023-02-28T04:01:39;-1.10;99.90
7194;DHT22;3638;48.820;9.244;2023-02-28T04:04:07;-1.10;99.90
7194;DHT22;3638;48.820;9.244;2023-02-28T04:06:36;-1.10;99.90
7194;DHT22;3638;48.820;9.244;2023-02-28T04:09:06;-1.10;99.90
7194;DHT22;3638;48.820;9.244;2023-02-28T04:11:35;-1.10;99.90
7194;DHT22;3638;48.820;9.244;2023-02-28T04:14:03;-1.00;99.90
7194;DHT22;3638;48.820;9.244;2023-02-28T04:16:32;-1.00;99.90
7194;DHT22;3638;48.820;9.244;2023-02-28T04:19:00;-1.00;99.90
7194;DHT22;3638;48.820;9.244;2023-02-28T04:21:28;-1.00;99.90
7194;DHT22;3638;48.820;9.244;2023-02-28T04:23:56;-1.00;99.90
7194;DHT22;3638;48.820;9.244;2023-02-28T04:26:28;-1.00;99.90
7194;DHT22;3638;48.820;9.244;2023-02-28T04:28:56;-0.80;99.90
7194;DHT22;3638;48.820;9.244;2023-02-28T04:31:23;-0.80;99.90
7194;DHT22;3638;48.820;9.244;2023-02-28T04:33:49;-0.80;99.90
7194;DHT22;3638;48.820;9.244;2023-02-28T04:36:17;-0.80;99.90
7194;DHT22;3638;48.820;9.244;2023-02-28T04:38:44;-0.70;99.90
7194;DHT22;3638;48.820;9.244;2023-02-28T04:41:13;-0.80;99.90
7194;DHT22;3638;48.820;9.244;2023-02-28T04:43:40;-0.80;99.90
7194;DHT22;3638;48.820;9.244;2023-02-28T04:46:07;-0.70;99.90
7194;DHT22;3638;48.820;9.244;2023-02-28T04:48:38;-0.80;99.90
7194;DHT22;3638;48.820;9.244;2023-02-28T04:51:07;-0.60;99.90
7194;DHT22;3638;48.820;9.244;2023-02-28T04:53:35;-0.70;99.90
7194;DHT22;3638;48.820;9.244;2023-02-28T04:56:02;-0.60;99.90
7194;DHT22;3638;48.820;9.244;2023-02-28T04:58:31;-0.70;99.90
7194;DHT22;3638;48.820;9.244;2023-02-28T05:01:03;-0.70;99.90
7194;DHT22;3638;48.820;9.244;2023-02-28T05:03:38;-0.70;99.90
7194;DHT22;3638;48.820;9.244;2023-02-28T05:06:06;-0.80;99.90
7194;DHT22;3638;48.820;9.244;2023-02-28T05:08:33;-0.70;99.90
7194;DHT22;3638;48.820;9.244;2023-02-28T05:11:00;-0.80;99.90
7194;DHT22;3638;48.820;9.244;2023-02-28T05:13:28;-0.80;99.90
7194;DHT22;3638;48.820;9.244;2023-02-28T05:15:56;-0.70;99.90
7194;DHT22;3638;48.820;9.244;2023-02-28T05:18:23;-0.80;99.90
7194;DHT22;3638;48.820;9.244;2023-02-28T05:20:50;-0.80;99.90
7194;DHT22;3638;48.820;9.244;2023-02-28T05:23:17;-0.80;99.90
7194;DHT22;3638;48.820;9.244;2023-02-28T05:25:46;-0.70;99.90
7194;DHT22;3638;48.820;9.244;2023-02-28T05:28:13;-0.70;99.90
7194;DHT22;3638;48.820;9.244;2023-02-28T05:30:40;-0.70;99.90
7194;DHT22;3638;48.820;9.244;2023-02-28T05:33:10;-0.70;99.90
7194;DHT22;3638;48.820;9.244;2023-02-28T05:35:38;-0.80;99.90
7194;DHT22;3638;48.820;9.244;2023-02-28T05:38:05;-0.80;99.90
7194;DHT22;3638;48.820;9.244;2023-02-28T05:40:32;-0.70;99.90
7194;DHT22;3638;48.820;9.244;2023-02-28T05:42:59;-0.70;99.90
7194;DHT22;3638;48.820;9.244;2023-02-28T05:45:26;-0.60;99.90
7194;DHT22;3638;48.820;9.244;2023-02-28T05:47:54;-0.60;99.90
7194;DHT22;3638;48.820;9.244;2023-02-28T05:50:22;-0.60;99.90
7194;DHT22;3638;48.820;9.244;2023-02-28T05:52:49;-0.60;99.90
7194;DHT22;3638;48.820;9.244;2023-02-28T05:55:16;-0.60;99.90
7194;DHT22;3638;48.820;9.244;2023-02-28T05:57:43;-0.70;99.90
7194;DHT22;3638;48.820;9.244;2023-02-28T06:00:11;-0.60;99.90
7194;DHT22;3638;48.820;9.244;2023-02-28T06:02:40;-0.60;99.90
7194;DHT22;3638;48.820;9.244;2023-02-28T06:05:10;-0.60;99.90
7194;DHT22;3638;48.820;9.244;2023-02-28T06:07:41;-0.60;99.90
7194;DHT22;3638;48.820;9.244;2023-02-28T06:10:09;-0.70;99.90
7194;DHT22;3638;48.820;9.244;2023-02-28T06:12:37;-0.60;99.90
7194;DHT22;3638;48.820;9.244;2023-02-28T06:15:05;-0.60;99.90
7194;DHT22;3638;48.820;9.244;2023-02-28T06:17:32;-0.60;99.90
7194;DHT22;3638;48.820;9.244;2023-02-28T06:19:59;-0.50;99.90
7194;DHT22;3638;48.820;9.244;2023-02-28T06:22:26;-0.50;99.90
7194;DHT22;3638;48.820;9.244;2023-02-28T06:24:54;-0.50;99.90
7194;DHT22;3638;48.820;9.244;2023-02-28T06:27:22;-0.50;99.90
7194;DHT22;3638;48.820;9.244;2023-02-28T06:29:52;-0.50;99.90
7194;DHT22;3638;48.820;9.244;2023-02-28T06:32:19;-0.30;99.90
7194;DHT22;3638;48.820;9.244;2023-02-28T06:34:46;-0.40;99.90
7194;DHT22;3638;48.820;9.244;2023-02-28T06:37:13;-0.30;99.90
7194;DHT22;3638;48.820;9.244;2023-02-28T06:39:40;-0.30;99.90
7194;DHT22;3638;48.820;9.244;2023-02-28T06:42:08;-0.30;99.90
7194;DHT22;3638;48.820;9.244;2023-02-28T06:44:35;-0.30;99.90
7194;DHT22;3638;48.820;9.244;2023-02-28T06:47:04;-0.30;99.90
7194;DHT22;3638;48.820;9.244;2023-02-28T06:49:33;-0.30;99.90
7194;DHT22;3638;48.820;9.244;2023-02-28T06:52:01;-0.30;99.90
7194;DHT22;3638;48.820;9.244;2023-02-28T06:54:28;-0.30;99.90
7194;DHT22;3638;48.820;9.244;2023-02-28T06:56:57;-0.30;99.90
7194;DHT22;3638;48.820;9.244;2023-02-28T06:59:25;-0.20;99.90
7194;DHT22;3638;48.820;9.244;2023-02-28T07:01:52;-0.20;99.90
7194;DHT22;3638;48.820;9.244;2023-02-28T07:04:20;-0.10;99.90
7194;DHT22;3638;48.820;9.244;2023-02-28T07:06:47;-0.10;99.90
7194;DHT22;3638;48.820;9.244;2023-02-28T07:09:14;-0.20;99.90
7194;DHT22;3638;48.820;9.244;2023-02-28T07:11:41;0.00;99.90
7194;DHT22;3638;48.820;9.244;2023-02-28T07:14:09;-0.10;99.90
7194;DHT22;3638;48.820;9.244;2023-02-28T07:16:37;0.00;99.90
7194;DHT22;3638;48.820;9.244;2023-02-28T07:19:04;0.00;99.90
7194;DHT22;3638;48.820;9.244;2023-02-28T07:21:31;0.00;99.90
7194;DHT22;3638;48.820;9.244;2023-02-28T07:23:58;0.00;99.90
7194;DHT22;3638;48.820;9.244;2023-02-28T07:26:24;-0.10;99.90
7194;DHT22;3638;48.820;9.244;2023-02-28T07:28:51;0.00;99.90
7194;DHT22;3638;48.820;9.244;2023-02-28T07:31:19;0.10;99.90
7194;DHT22;3638;48.820;9.244;2023-02-28T07:33:47;0.10;99.90
7194;DHT22;3638;48.820;9.244;2023-02-28T07:36:16;0.00;99.90
7194;DHT22;3638;48.820;9.244;2023-02-28T07:38:46;0.00;99.90
7194;DHT22;3638;48.820;9.244;2023-02-28T07:41:15;0.60;99.90
7194;DHT22;3638;48.820;9.244;2023-02-28T07:43:43;0.20;99.90
7194;DHT22;3638;48.820;9.244;2023-02-28T07:46:12;0.20;99.90
7194;DHT22;3638;48.820;9.244;2023-02-28T07:48:41;0.00;99.90
7194;DHT22;3638;48.820;9.244;2023-02-28T07:51:10;0.00;99.90
7194;DHT22;3638;48.820;9.244;2023-02-28T07:53:37;0.70;99.90
7194;DHT22;3638;48.820;9.244;2023-02-28T07:56:05;0.00;99.90
7194;DHT22;3638;48.820;9.244;2023-02-28T07:58:33;0.00;99.90
7194;DHT22;3638;48.820;9.244;2023-02-28T08:01:05;0.00;99.90
7194;DHT22;3638;48.820;9.244;2023-02-28T08:03:33;0.00;99.90
7194;DHT22;3638;48.820;9.244;2023-02-28T08:06:01;0.10;99.90
7194;DHT22;3638;48.820;9.244;2023-02-28T08:08:29;0.00;99.90
7194;DHT22;3638;48.820;9.244;2023-02-28T08:10:58;0.00;99.90
7194;DHT22;3638;48.820;9.244;2023-02-28T08:13:27;0.10;99.90
7194;DHT22;3638;48.820;9.244;2023-02-28T08:15:54;0.20;99.90
7194;DHT22;3638;48.820;9.244;2023-02-28T08:18:22;0.20;99.90
7194;DHT22;3638;48.820;9.244;2023-02-28T08:20:49;0.40;99.90
7194;DHT22;3638;48.820;9.244;2023-02-28T08:23:16;0.40;99.90
7194;DHT22;3638;48.820;9.244;2023-02-28T08:25:44;0.40;99.90
7194;DHT22;3638;48.820;9.244;2023-02-28T08:28:11;0.60;99.90
7194;DHT22;3638;48.820;9.244;2023-02-28T08:30:38;0.70;99.90
7194;DHT22;3638;48.820;9.244;2023-02-28T08:33:06;0.70;99.90
7194;DHT22;3638;48.820;9.244;2023-02-28T08:35:35;0.90;99.90
7194;DHT22;3638;48.820;9.244;2023-02-28T08:38:02;0.90;99.90
7194;DHT22;3638;48.820;9.244;2023-02-28T08:40:29;0.80;99.90
7194;DHT22;3638;48.820;9.244;2023-02-28T08:42:57;0.90;99.90
7194;DHT22;3638;48.820;9.244;2023-02-28T08:45:25;1.10;99.90
7194;DHT22;3638;48.820;9.244;2023-02-28T08:47:53;1.20;99.90
7194;DHT22;3638;48.820;9.244;2023-02-28T08:50:21;1.30;99.90
7194;DHT22;3638;48.820;9.244;2023-02-28T08:52:48;1.40;99.90
7194;DHT22;3638;48.820;9.244;2023-02-28T08:55:15;1.40;99.90
7194;DHT22;3638;48.820;9.244;2023-02-28T08:57:42;1.30;99.90
7194;DHT22;3638;48.820;9.244;2023-02-28T09:00:11;1.50;99.90
7194;DHT22;3638;48.820;9.244;2023-02-28T09:02:40;1.50;99.90
7194;DHT22;3638;48.820;9.244;2023-02-28T09:05:09;1.70;99.90
7194;DHT22;3638;48.820;9.244;2023-02-28T09:07:36;1.70;99.90
7194;DHT22;3638;48.820;9.244;2023-02-28T09:10:03;1.70;99.90
7194;DHT22;3638;48.820;9.244;2023-02-28T09:12:33;1.70;99.90
7194;DHT22;3638;48.820;9.244;2023-02-28T09:15:01;1.70;99.90
7194;DHT22;3638;48.820;9.244;2023-02-28T09:17:29;1.70;99.90
7194;DHT22;3638;48.820;9.244;2023-02-28T09:19:56;1.80;99.90
7194;DHT22;3638;48.820;9.244;2023-02-28T09:22:23;1.90;99.90
7194;DHT22;3638;48.820;9.244;2023-02-28T09:24:50;1.80;99.90
7194;DHT22;3638;48.820;9.244;2023-02-28T09:27:17;1.70;99.90
7194;DHT22;3638;48.820;9.244;2023-02-28T09:29:44;1.70;99.90
7194;DHT22;3638;48.820;9.244;2023-02-28T09:32:11;1.80;99.90
7194;DHT22;3638;48.820;9.244;2023-02-28T09:34:39;2.00;99.90
7194;DHT22;3638;48.820;9.244;2023-02-28T09:37:06;2.00;99.90
7194;DHT22;3638;48.820;9.244;2023-02-28T09:39:33;2.10;99.90
7194;DHT22;3638;48.820;9.244;2023-02-28T09:42:02;2.20;99.90
7194;DHT22;3638;48.820;9.244;2023-02-28T09:44:33;3.90;99.90
7194;DHT22;3638;48.820;9.244;2023-02-28T09:47:11;2.40;99.90
7194;DHT22;3638;48.820;9.244;2023-02-28T09:49:45;2.50;99.90
7194;DHT22;3638;48.820;9.244;2023-02-28T09:52:17;2.30;99.90
7194;DHT22;3638;48.820;9.244;2023-02-28T09:54:45;2.20;99.90
7194;DHT22;3638;48.820;9.244;2023-02-28T09:57:17;2.30;99.90
7194;DHT22;3638;48.820;9.244;2023-02-28T09:59:54;2.30;99.90
7194;DHT22;3638;48.820;9.244;2023-02-28T10:02:50;2.20;99.90
7194;DHT22;3638;48.820;9.244;2023-02-28T10:05:34;2.30;99.90
7194;DHT22;3638;48.820;9.244;2023-02-28T10:08:10;2.20;99.90
7194;DHT22;3638;48.820;9.244;2023-02-28T10:10:41;2.30;99.90
7194;DHT22;3638;48.820;9.244;2023-02-28T10:13:17;3.00;99.90
7194;DHT22;3638;48.820;9.244;2023-02-28T10:15:52;2.90;99.90
7194;DHT22;3638;48.820;9.244;2023-02-28T10:18:26;2.80;99.90
7194;DHT22;3638;48.820;9.244;2023-02-28T10:20:57;2.80;99.90
7194;DHT22;3638;48.820;9.244;2023-02-28T10:23:28;2.90;99.90
7194;DHT22;3638;48.820;9.244;2023-02-28T10:26:04;3.00;99.90
7194;DHT22;3638;48.820;9.244;2023-02-28T10:28:36;3.20;99.90
7194;DHT22;3638;48.820;9.244;2023-02-28T10:31:03;3.00;99.90
7194;DHT22;3638;48.820;9.244;2023-02-28T10:33:33;2.90;99.90
7194;DHT22;3638;48.820;9.244;2023-02-28T10:36:03;2.90;99.90
7194;DHT22;3638;48.820;9.244;2023-02-28T10:38:34;3.10;99.90
7194;DHT22;3638;48.820;9.244;2023-02-28T10:41:06;3.10;99.90
7194;DHT22;3638;48.820;9.244;2023-02-28T10:43:34;3.00;99.90
7194;DHT22;3638;48.820;9.244;2023-02-28T10:46:04;3.10;99.90
7194;DHT22;3638;48.820;9.244;2023-02-28T10:48:37;3.20;99.90
7194;DHT22;3638;48.820;9.244;2023-02-28T10:51:08;3.30;99.90
7194;DHT22;3638;48.820;9.244;2023-02-28T10:53:39;3.50;99.90
7194;DHT22;3638;48.820;9.244;2023-02-28T10:56:18;3.60;99.90
7194;DHT22;3638;48.820;9.244;2023-02-28T10:58:50;3.60;99.90
7194;DHT22;3638;48.820;9.244;2023-02-28T11:01:21;3.70;99.90
7194;DHT22;3638;48.820;9.244;2023-02-28T11:03:50;4.00;99.90
7194;DHT22;3638;48.820;9.244;2023-02-28T11:06:22;4.20;99.90
7194;DHT22;3638;48.820;9.244;2023-02-28T11:08:52;4.30;99.90
7194;DHT22;3638;48.820;9.244;2023-02-28T11:11:21;4.40;99.90
7194;DHT22;3638;48.820;9.244;2023-02-28T11:13:51;4.60;99.90
7194;DHT22;3638;48.820;9.244;2023-02-28T11:16:20;4.70;99.90
7194;DHT22;3638;48.820;9.244;2023-02-28T11:18:49;4.60;99.90
7194;DHT22;3638;48.820;9.244;2023-02-28T11:21:25;4.60;99.90
7194;DHT22;3638;48.820;9.244;2023-02-28T11:23:58;4.50;99.90
7194;DHT22;3638;48.820;9.244;2023-02-28T11:26:39;4.70;99.90
7194;DHT22;3638;48.820;9.244;2023-02-28T11:29:17;4.60;99.90
7194;DHT22;3638;48.820;9.244;2023-02-28T11:32:05;4.70;99.90
7194;DHT22;3638;48.820;9.244;2023-02-28T11:34:39;4.50;99.90
7194;DHT22;3638;48.820;9.244;2023-02-28T11:37:12;4.60;99.90
7194;DHT22;3638;48.820;9.244;2023-02-28T11:39:41;4.50;99.90
7194;DHT22;3638;48.820;9.244;2023-02-28T11:42:32;4.60;99.90
7194;DHT22;3638;48.820;9.244;2023-02-28T11:45:18;4.60;99.60
7194;DHT22;3638;48.820;9.244;2023-02-28T11:47:56;4.60;99.90
7194;DHT22;3638;48.820;9.244;2023-02-28T11:50:45;4.70;99.40
7194;DHT22;3638;48.820;9.244;2023-02-28T11:53:27;4.70;99.60
7194;DHT22;3638;48.820;9.244;2023-02-28T11:56:08;4.80;99.10
7194;DHT22;3638;48.820;9.244;2023-02-28T11:58:45;4.80;99.50
7194;DHT22;3638;48.820;9.244;2023-02-28T12:01:31;4.80;99.30
7194;DHT22;3638;48.820;9.244;2023-02-28T12:04:17;4.90;99.00
7194;DHT22;3638;48.820;9.244;2023-02-28T12:06:55;4.80;98.90
7194;DHT22;3638;48.820;9.244;2023-02-28T12:09:44;4.80;98.90
7194;DHT22;3638;48.820;9.244;2023-02-28T12:12:23;4.60;99.00
7194;DHT22;3638;48.820;9.244;2023-02-28T12:15:21;4.80;99.80
7194;DHT22;3638;48.820;9.244;2023-02-28T12:18:06;4.80;99.30
7194;DHT22;3638;48.820;9.244;2023-02-28T12:20:56;4.90;99.10
7194;DHT22;3638;48.820;9.244;2023-02-28T12:23:48;4.90;99.70
7194;DHT22;3638;48.820;9.244;2023-02-28T12:26:29;5.10;99.00
7194;DHT22;3638;48.820;9.244;2023-02-28T12:29:04;5.00;99.10
7194;DHT22;3638;48.820;9.244;2023-02-28T12:31:39;5.00;98.10
7194;DHT22;3638;48.820;9.244;2023-02-28T12:34:13;5.00;99.00
7194;DHT22;3638;48.820;9.244;2023-02-28T12:36:43;5.00;98.60
7194;DHT22;3638;48.820;9.244;2023-02-28T12:39:14;5.00;98.50
7194;DHT22;3638;48.820;9.244;2023-02-28T12:41:47;4.90;98.60
7194;DHT22;3638;48.820;9.244;2023-02-28T12:44:21;5.00;98.70
7194;DHT22;3638;48.820;9.244;2023-02-28T12:46:55;5.00;98.00
7194;DHT22;3638;48.820;9.244;2023-02-28T12:49:27;5.00;98.80
7194;DHT22;3638;48.820;9.244;2023-02-28T12:51:58;5.10;98.80
7194;DHT22;3638;48.820;9.244;2023-02-28T12:54:29;5.20;98.70
7194;DHT22;3638;48.820;9.244;2023-02-28T12:57:06;5.20;98.20
7194;DHT22;3638;48.820;9.244;2023-02-28T12:59:39;5.30;98.30
7194;DHT22;3638;48.820;9.244;2023-02-28T13:02:41;5.20;98.00
7194;DHT22;3638;48.820;9.244;2023-02-28T13:09:05;5.00;97.60
7194;DHT22;3638;48.820;9.244;2023-02-28T13:11:39;5.20;98.10
7194;DHT22;3638;48.820;9.244;2023-02-28T13:14:29;5.20;97.50
7194;DHT22;3638;48.820;9.244;2023-02-28T13:16:59;5.20;97.50
7194;DHT22;3638;48.820;9.244;2023-02-28T13:19:30;5.30;97.80
7194;DHT22;3638;48.820;9.244;2023-02-28T13:21:59;5.40;97.50
7194;DHT22;3638;48.820;9.244;2023-02-28T13:24:43;5.50;96.60
7194;DHT22;3638;48.820;9.244;2023-02-28T13:27:36;5.40;96.90
7194;DHT22;3638;48.820;9.244;2023-02-28T13:33:28;5.50;96.70
7194;DHT22;3638;48.820;9.244;2023-02-28T13:36:22;5.50;96.80
7194;DHT22;3638;48.820;9.244;2023-02-28T13:38:52;5.70;96.50
7194;DHT22;3638;48.820;9.244;2023-02-28T13:41:43;5.70;95.90
7194;DHT22;3638;48.820;9.244;2023-02-28T13:44:15;5.70;96.00
7194;DHT22;3638;48.820;9.244;2023-02-28T13:49:52;5.70;96.10
7194;DHT22;3638;48.820;9.244;2023-02-28T13:52:22;5.80;96.00
7194;DHT22;3638;48.820;9.244;2023-02-28T13:55:13;5.70;95.80
7194;DHT22;3638;48.820;9.244;2023-02-28T13:58:00;5.70;96.00
7194;DHT22;3638;48.820;9.244;2023-02-28T14:00:47;5.90;96.10
7194;DHT22;3638;48.820;9.244;2023-02-28T14:03:41;5.90;95.60
7194;DHT22;3638;48.820;9.244;2023-02-28T14:06:24;6.00;96.60
7194;DHT22;3638;48.820;9.244;2023-02-28T14:08:55;6.00;95.60
7194;DHT22;3638;48.820;9.244;2023-02-28T14:11:27;6.10;95.30
7194;DHT22;3638;48.820;9.244;2023-02-28T14:13:57;6.10;95.40
7194;DHT22;3638;48.820;9.244;2023-02-28T14:16:26;6.10;95.50
7194;DHT22;3638;48.820;9.244;2023-02-28T14:18:58;6.20;95.30
7194;DHT22;3638;48.820;9.244;2023-02-28T14:21:31;6.10;94.50
7194;DHT22;3638;48.820;9.244;2023-02-28T14:24:46;6.10;94.90
7194;DHT22;3638;48.820;9.244;2023-02-28T14:27:29;6.20;94.50
7194;DHT22;3638;48.820;9.244;2023-02-28T14:33:15;6.00;94.50
7194;DHT22;3638;48.820;9.244;2023-02-28T14:35:57;8.10;95.40
7194;DHT22;3638;48.820;9.244;2023-02-28T14:38:35;6.30;95.10
7194;DHT22;3638;48.820;9.244;2023-02-28T14:41:12;6.20;95.10
7194;DHT22;3638;48.820;9.244;2023-02-28T14:43:49;6.20;95.50
7194;DHT22;3638;48.820;9.244;2023-02-28T14:46:18;5.10;94.90
7194;DHT22;3638;48.820;9.244;2023-02-28T14:48:47;6.10;95.00
7194;DHT22;3638;48.820;9.244;2023-02-28T14:51:19;6.10;95.40
7194;DHT22;3638;48.820;9.244;2023-02-28T14:53:50;6.20;95.10
7194;DHT22;3638;48.820;9.244;2023-02-28T14:56:22;6.10;94.80
7194;DHT22;3638;48.820;9.244;2023-02-28T14:58:55;6.20;95.30
7194;DHT22;3638;48.820;9.244;2023-02-28T15:01:24;6.10;94.80
7194;DHT22;3638;48.820;9.244;2023-02-28T15:04:02;6.20;95.00
7194;DHT22;3638;48.820;9.244;2023-02-28T15:06:31;6.10;94.70
7194;DHT22;3638;48.820;9.244;2023-02-28T15:09:13;6.20;94.90
7194;DHT22;3638;48.820;9.244;2023-02-28T15:11:41;6.20;94.60
7194;DHT22;3638;48.820;9.244;2023-02-28T15:14:16;6.20;94.70
7194;DHT22;3638;48.820;9.244;2023-02-28T15:16:48;6.10;95.40
7194;DHT22;3638;48.820;9.244;2023-02-28T15:19:19;6.10;95.60
7194;DHT22;3638;48.820;9.244;2023-02-28T15:21:50;6.10;95.50
7194;DHT22;3638;48.820;9.244;2023-02-28T15:24:34;6.10;95.20
7194;DHT22;3638;48.820;9.244;2023-02-28T15:27:05;6.00;95.10
7194;DHT22;3638;48.820;9.244;2023-02-28T15:29:43;5.70;95.60
7194;DHT22;3638;48.820;9.244;2023-02-28T15:32:25;5.80;95.40
7194;DHT22;3638;48.820;9.244;2023-02-28T15:34:55;5.80;95.70
7194;DHT22;3638;48.820;9.244;2023-02-28T15:37:37;5.80;95.60
7194;DHT22;3638;48.820;9.244;2023-02-28T15:40:13;5.80;95.80
7194;DHT22;3638;48.820;9.244;2023-02-28T15:42:42;5.70;95.80
7194;DHT22;3638;48.820;9.244;2023-02-28T15:45:31;5.70;95.30
7194;DHT22;3638;48.820;9.244;2023-02-28T15:48:03;5.70;95.60
7194;DHT22;3638;48.820;9.244;2023-02-28T15:50:30;5.60;95.90
7194;DHT22;3638;48.820;9.244;2023-02-28T15:52:57;5.60;96.00
7194;DHT22;3638;48.820;9.244;2023-02-28T15:55:27;5.60;95.70
7194;DHT22;3638;48.820;9.244;2023-02-28T15:57:57;5.60;95.80
7194;DHT22;3638;48.820;9.244;2023-02-28T16:00:31;5.50;96.30
7194;DHT22;3638;48.820;9.244;2023-02-28T16:02:59;5.50;96.30
7194;DHT22;3638;48.820;9.244;2023-02-28T16:05:27;5.40;96.50
7194;DHT22;3638;48.820;9.244;2023-02-28T16:07:59;5.40;96.40
7194;DHT22;3638;48.820;9.244;2023-02-28T16:10:29;5.40;96.40
7194;DHT22;3638;48.820;9.244;2023-02-28T16:12:57;5.40;96.60
7194;DHT22;3638;48.820;9.244;2023-02-28T16:15:25;5.30;96.60
7194;DHT22;3638;48.820;9.244;2023-02-28T16:17:54;5.30;96.90
7194;DHT22;3638;48.820;9.244;2023-02-28T16:20:24;5.20;97.10
7194;DHT22;3638;48.820;9.244;2023-02-28T16:22:53;5.20;97.30
7194;DHT22;3638;48.820;9.244;2023-02-28T16:25:23;5.20;96.80
7194;DHT22;3638;48.820;9.244;2023-02-28T16:27:54;5.20;97.00
7194;DHT22;3638;48.820;9.244;2023-02-28T16:30:24;5.20;96.80
7194;DHT22;3638;48.820;9.244;2023-02-28T16:32:55;5.20;99.90
7194;DHT22;3638;48.820;9.244;2023-02-28T16:35:22;5.10;97.40
7194;DHT22;3638;48.820;9.244;2023-02-28T16:37:51;5.10;97.20
7194;DHT22;3638;48.820;9.244;2023-02-28T16:40:20;5.00;97.40
7194;DHT22;3638;48.820;9.244;2023-02-28T16:42:53;5.00;98.10
7194;DHT22;3638;48.820;9.244;2023-02-28T16:45:23;4.90;98.00
7194;DHT22;3638;48.820;9.244;2023-02-28T16:47:52;4.90;97.70
7194;DHT22;3638;48.820;9.244;2023-02-28T16:50:21;4.80;97.80
7194;DHT22;3638;48.820;9.244;2023-02-28T16:52:49;4.80;98.00
7194;DHT22;3638;48.820;9.244;2023-02-28T16:55:18;4.60;97.90
7194;DHT22;3638;48.820;9.244;2023-02-28T16:57:47;4.60;98.50
7194;DHT22;3638;48.820;9.244;2023-02-28T17:00:18;4.60;98.30
7194;DHT22;3638;48.820;9.244;2023-02-28T17:02:46;4.50;98.70
7194;DHT22;3638;48.820;9.244;2023-02-28T17:05:13;4.30;98.90
7194;DHT22;3638;48.820;9.244;2023-02-28T17:07:41;4.30;99.30